createdAt,value
2023-02-27T00:02:03.967Z,8.40
2023-02-27T00:04:32.031Z,13.60
2023-02-27T00:06:59.982Z,8.30
2023-02-27T00:09:28.069Z,9.80
2023-02-27T00:11:56.136Z,9.80
2023-02-27T00:14:24.097Z,9.40
2023-02-27T00:16:52.295Z,9.70
2023-02-27T00:19:21.669Z,15.50
2023-02-27T00:21:49.544Z,13.30
2023-02-27T00:24:17.499Z,11.50
2023-02-27T00:26:45.444Z,9.60
2023-02-27T00:29:13.337Z,14.10
2023-02-27T00:31:41.333Z,8.80
2023-02-27T00:34:09.329Z,10.40
2023-02-27T00:36:37.627Z,9.60
2023-02-27T00:39:05.632Z,8.40
2023-02-27T00:41:34.080Z,12.30
2023-02-27T00:44:02.096Z,10.10
2023-02-27T00:46:30.163Z,7.90
2023-02-27T00:48:58.252Z,9.00
2023-02-27T00:51:27.353Z,7.20
2023-02-27T00:53:56.627Z,11.80
2023-02-27T00:56:24.566Z,10.90
2023-02-27T00:58:52.477Z,11.00
2023-02-27T01:01:23.022Z,7.30
2023-02-27T01:03:51.009Z,8.10
2023-02-27T01:06:18.991Z,9.30
2023-02-27T01:08:49.782Z,9.40
2023-02-27T01:11:18.214Z,9.10
2023-02-27T01:13:46.395Z,12.30
2023-02-27T01:16:14.947Z,12.00
2023-02-27T01:18:45.912Z,10.10
2023-02-27T01:21:13.916Z,17.50
2023-02-27T01:23:42.132Z,9.60
2023-02-27T01:26:10.823Z,11.60
2023-02-27T01:28:38.795Z,13.00
2023-02-27T01:31:07.244Z,13.00
2023-02-27T01:33:35.475Z,7.00
2023-02-27T01:36:03.640Z,9.00
2023-02-27T01:38:31.884Z,7.60
2023-02-27T01:41:01.753Z,8.00
2023-02-27T01:43:29.669Z,13.90
2023-02-27T01:45:59.465Z,12.60
2023-02-27T01:48:39.745Z,9.20
2023-02-27T01:51:14.150Z,9.50
2023-02-27T01:53:46.847Z,8.50
2023-02-27T01:56:20.039Z,8.20
2023-02-27T01:58:51.842Z,8.70
2023-02-27T02:01:21.112Z,10.20
2023-02-27T02:04:03.820Z,11.60
2023-02-27T02:06:36.537Z,11.70
2023-02-27T02:09:08.862Z,12.30
2023-02-27T02:11:38.281Z,10.10
2023-02-27T02:14:11.079Z,12.00
2023-02-27T02:16:54.689Z,10.60
2023-02-27T02:19:41.039Z,11.80
2023-02-27T02:22:45.870Z,12.60
2023-02-27T02:25:46.756Z,10.00
2023-02-27T02:28:53.099Z,10.20
2023-02-27T02:31:21.226Z,7.30
2023-02-27T02:34:10.490Z,7.60
2023-02-27T02:37:07.096Z,12.20
2023-02-27T02:40:04.709Z,10.00
2023-02-27T02:42:43.927Z,9.40
2023-02-27T02:45:31.391Z,10.10
2023-02-27T02:48:29.488Z,10.90
2023-02-27T02:51:05.146Z,7.90
2023-02-27T02:53:56.927Z,8.40
2023-02-27T02:56:45.686Z,10.70
2023-02-27T02:59:51.390Z,9.10
2023-02-27T03:02:41.623Z,10.10
2023-02-27T03:05:15.738Z,9.70
2023-02-27T03:07:52.230Z,11.40
2023-02-27T03:10:33.783Z,12.90
2023-02-27T03:13:12.838Z,9.00
2023-02-27T03:15:46.067Z,7.90
2023-02-27T03:18:20.888Z,8.90
2023-02-27T03:21:03.487Z,9.90
2023-02-27T03:23:44.587Z,13.10
2023-02-27T03:26:19.696Z,11.50
2023-02-27T03:29:06.150Z,11.60
2023-02-27T03:31:37.457Z,12.30
2023-02-27T03:34:36.552Z,12.50
2023-02-27T03:37:36.463Z,12.70
2023-02-27T03:40:29.448Z,10.20
2023-02-27T03:43:21.099Z,11.90
2023-02-27T03:46:16.420Z,10.60
2023-02-27T03:48:45.941Z,11.90
2023-02-27T03:51:22.657Z,13.30
2023-02-27T03:54:09.892Z,9.70
2023-02-27T03:56:44.432Z,13.80
2023-02-27T03:59:14.214Z,9.60
2023-02-27T04:05:24.218Z,11.30
2023-02-27T04:08:13.316Z,9.70
2023-02-27T04:10:45.690Z,8.60
2023-02-27T04:13:38.441Z,9.90
2023-02-27T04:16:25.308Z,9.50
2023-02-27T04:19:34.629Z,9.50
2023-02-27T04:22:35.833Z,12.80
2023-02-27T04:25:37.476Z,11.80
2023-02-27T04:28:23.670Z,10.80
2023-02-27T04:34:49.900Z,10.30
2023-02-27T04:37:27.918Z,13.90
2023-02-27T04:39:55.807Z,13.00
2023-02-27T04:42:29.099Z,10.70
2023-02-27T04:45:27.712Z,14.60
2023-02-27T04:48:33.203Z,12.30
2023-02-27T04:54:05.090Z,12.70
2023-02-27T04:56:40.926Z,10.40
2023-02-27T04:59:16.043Z,9.90
2023-02-27T05:01:51.687Z,9.40
2023-02-27T05:04:23.044Z,13.80
2023-02-27T05:06:53.472Z,14.20
2023-02-27T05:09:30.409Z,7.20
2023-02-27T05:12:07.136Z,8.70
2023-02-27T05:14:41.944Z,7.90
2023-02-27T05:17:18.002Z,10.70
2023-02-27T05:19:46.952Z,8.50
2023-02-27T05:22:33.498Z,10.70
2023-02-27T05:25:11.980Z,9.70
2023-02-27T05:27:54.166Z,15.40
2023-02-27T05:33:09.414Z,13.60
2023-02-27T05:35:43.031Z,11.30
2023-02-27T05:38:29.734Z,12.20
2023-02-27T05:41:03.853Z,11.90
2023-02-27T05:43:36.937Z,11.80
2023-02-27T05:46:10.111Z,9.40
2023-02-27T05:49:09.415Z,8.60
2023-02-27T05:51:41.597Z,8.80
2023-02-27T05:54:22.674Z,8.40
2023-02-27T05:56:54.332Z,11.90
2023-02-27T06:01:54.221Z,10.80
2023-02-27T06:04:22.392Z,11.30
2023-02-27T06:06:50.311Z,10.10
2023-02-27T06:09:18.225Z,7.60
2023-02-27T06:11:46.094Z,9.30
2023-02-27T06:14:13.967Z,11.40
2023-02-27T06:16:41.867Z,8.90
2023-02-27T06:19:09.707Z,4.90
2023-02-27T06:21:37.673Z,6.10
2023-02-27T06:24:05.832Z,8.10
2023-02-27T06:26:33.867Z,4.40
2023-02-27T06:29:02.600Z,5.60
2023-02-27T06:31:30.482Z,5.00
2023-02-27T06:33:58.550Z,3.70
2023-02-27T06:36:29.540Z,5.40
2023-02-27T06:38:58.113Z,5.70
2023-02-27T06:41:26.076Z,6.30
2023-02-27T06:43:56.078Z,4.80
2023-02-27T06:46:25.114Z,6.50
2023-02-27T06:48:53.218Z,5.50
2023-02-27T06:51:21.118Z,3.60
2023-02-27T06:53:49.074Z,4.40
2023-02-27T06:56:16.941Z,5.20
2023-02-27T06:58:44.885Z,3.90
2023-02-27T07:01:13.505Z,2.90
2023-02-27T07:03:41.600Z,3.70
2023-02-27T07:06:10.251Z,2.60
2023-02-27T07:08:38.483Z,9.60
2023-02-27T07:11:26.468Z,1.80
2023-02-27T07:13:54.351Z,6.50
2023-02-27T07:16:22.471Z,1.90
2023-02-27T07:18:50.516Z,7.00
2023-02-27T07:21:18.384Z,7.10
2023-02-27T07:23:46.288Z,2.80
2023-02-27T07:26:14.097Z,1.00
2023-02-27T07:28:42.121Z,3.40
2023-02-27T07:31:10.089Z,2.80
2023-02-27T07:33:38.290Z,15.80
2023-02-27T07:36:06.517Z,5.80
2023-02-27T07:38:34.422Z,4.90
2023-02-27T07:41:02.351Z,2.50
2023-02-27T07:43:30.413Z,2.60
2023-02-27T07:45:58.535Z,2.20
2023-02-27T07:48:26.405Z,5.00
2023-02-27T07:50:54.308Z,4.20
2023-02-27T07:53:22.358Z,4.10
2023-02-27T07:55:50.388Z,3.40
2023-02-27T07:58:18.690Z,4.80
2023-02-27T08:00:46.601Z,3.70
2023-02-27T08:03:14.642Z,3.10
2023-02-27T08:05:42.833Z,3.10
2023-02-27T08:08:10.874Z,4.40
2023-02-27T08:10:38.935Z,1.80
2023-02-27T08:13:06.805Z,2.30
2023-02-27T08:15:34.879Z,6.10
2023-02-27T08:18:02.974Z,2.20
2023-02-27T08:20:32.052Z,3.50
2023-02-27T08:23:00.111Z,3.80
2023-02-27T08:25:28.273Z,2.10
2023-02-27T08:27:56.339Z,2.00
2023-02-27T08:30:24.437Z,2.00
2023-02-27T08:32:52.385Z,2.50
2023-02-27T08:35:20.339Z,2.10
2023-02-27T08:37:49.894Z,4.00
2023-02-27T08:40:18.228Z,3.10
2023-02-27T08:42:46.096Z,1.10
2023-02-27T08:45:14.151Z,3.50
2023-02-27T08:47:45.501Z,2.10
2023-02-27T08:50:13.763Z,2.70
2023-02-27T08:52:41.644Z,2.50
2023-02-27T08:55:10.138Z,2.50
2023-02-27T08:57:38.016Z,3.80
2023-02-27T09:00:07.868Z,1.80
2023-02-27T09:02:39.537Z,2.20
2023-02-27T09:05:07.891Z,2.30
2023-02-27T09:07:36.162Z,1.30
2023-02-27T09:10:04.245Z,1.80
2023-02-27T09:12:32.348Z,3.00
2023-02-27T09:15:00.260Z,1.10
2023-02-27T09:17:28.288Z,1.60
2023-02-27T09:19:57.494Z,1.80
2023-02-27T09:22:25.552Z,1.40
2023-02-27T09:24:53.550Z,2.90
2023-02-27T09:27:21.489Z,2.30
2023-02-27T09:29:55.411Z,1.30
2023-02-27T09:32:24.302Z,1.70
2023-02-27T09:34:52.719Z,2.00
2023-02-27T09:37:20.737Z,2.80
2023-02-27T09:39:48.607Z,1.70
2023-02-27T09:42:27.327Z,2.80
2023-02-27T09:45:06.365Z,2.10
2023-02-27T09:47:42.380Z,4.30
2023-02-27T09:50:34.147Z,1.20
2023-02-27T09:53:02.319Z,4.30
2023-02-27T09:55:38.300Z,3.20
2023-02-27T09:58:38.141Z,2.30
2023-02-27T10:01:14.704Z,2.40
2023-02-27T10:04:13.086Z,1.20
2023-02-27T10:06:48.524Z,2.40
2023-02-27T10:09:36.458Z,3.30
2023-02-27T10:12:26.817Z,1.10
2023-02-27T10:15:05.964Z,3.20
2023-02-27T10:17:38.975Z,3.30
2023-02-27T10:20:26.961Z,1.10
2023-02-27T10:22:58.179Z,3.10
2023-02-27T10:25:31.675Z,3.50
2023-02-27T10:28:12.935Z,3.20
2023-02-27T10:30:41.882Z,1.80
2023-02-27T10:33:19.765Z,2.10
2023-02-27T10:35:47.738Z,4.00
2023-02-27T10:38:20.158Z,5.00
2023-02-27T10:40:48.604Z,3.50
2023-02-27T10:43:19.256Z,1.40
2023-02-27T10:45:47.461Z,1.00
2023-02-27T10:48:16.075Z,1.60
2023-02-27T10:50:46.861Z,3.80
2023-02-27T10:53:22.561Z,2.60
2023-02-27T10:56:10.708Z,1.80
2023-02-27T10:58:38.980Z,3.40
2023-02-27T11:04:40.815Z,1.90
2023-02-27T11:09:42.568Z,0.80
2023-02-27T11:12:30.864Z,1.00
2023-02-27T11:15:02.233Z,3.90
2023-02-27T11:17:35.338Z,3.20
2023-02-27T11:20:43.409Z,3.90
2023-02-27T11:23:19.567Z,3.00
2023-02-27T11:25:48.611Z,4.10
2023-02-27T11:28:30.843Z,1.60
2023-02-27T11:33:34.355Z,3.30
2023-02-27T11:36:04.063Z,6.00
2023-02-27T11:38:33.084Z,1.60
2023-02-27T11:41:04.287Z,1.50
2023-02-27T11:43:41.890Z,4.00
2023-02-27T11:46:45.392Z,4.50
2023-02-27T11:49:09.740Z,2.00
2023-02-27T11:52:09.731Z,1.80
2023-02-27T11:54:54.607Z,3.20
2023-02-27T11:57:44.154Z,2.20
2023-02-27T12:00:30.975Z,4.50
2023-02-27T12:03:21.031Z,2.60
2023-02-27T12:05:57.620Z,2.10
2023-02-27T12:08:37.666Z,1.40
2023-02-27T12:11:28.365Z,1.00
2023-02-27T12:14:08.685Z,2.30
2023-02-27T12:16:42.487Z,2.90
2023-02-27T12:19:22.909Z,2.00
2023-02-27T12:21:57.211Z,4.40
2023-02-27T12:24:43.992Z,2.70
2023-02-27T12:27:25.746Z,2.20
2023-02-27T12:29:53.666Z,2.90
2023-02-27T12:32:31.869Z,3.20
2023-02-27T12:35:18.136Z,4.40
2023-02-27T12:37:46.199Z,1.30
2023-02-27T12:40:17.188Z,1.20
2023-02-27T12:43:02.211Z,5.00
2023-02-27T12:45:48.468Z,1.20
2023-02-27T12:48:55.452Z,2.70
2023-02-27T12:51:56.833Z,2.60
2023-02-27T12:54:57.003Z,2.20
2023-02-27T12:57:36.345Z,3.40
2023-02-27T13:00:17.557Z,0.30
2023-02-27T13:02:55.463Z,3.00
2023-02-27T13:05:53.494Z,1.30
2023-02-27T13:08:45.989Z,6.00
2023-02-27T13:11:36.172Z,4.00
2023-02-27T13:14:33.338Z,5.30
2023-02-27T13:17:10.844Z,5.30
2023-02-27T13:19:53.101Z,4.60
2023-02-27T13:24:56.449Z,3.10
2023-02-27T13:27:40.502Z,4.30
2023-02-27T13:30:37.021Z,1.40
2023-02-27T13:33:08.084Z,2.10
2023-02-27T13:35:52.023Z,2.60
2023-02-27T13:38:44.329Z,1.80
2023-02-27T13:44:01.357Z,3.00
2023-02-27T13:46:33.859Z,2.50
2023-02-27T13:49:05.240Z,1.90
2023-02-27T13:51:36.625Z,2.70
2023-02-27T13:54:13.723Z,5.60
2023-02-27T13:56:59.517Z,2.30
2023-02-27T13:59:33.779Z,3.40
2023-02-27T14:02:01.895Z,4.60
2023-02-27T14:04:34.338Z,1.40
2023-02-27T14:07:11.301Z,1.50
2023-02-27T14:09:45.957Z,4.40
2023-02-27T14:12:44.507Z,2.40
2023-02-27T14:15:22.692Z,4.30
2023-02-27T14:18:02.466Z,3.00
2023-02-27T14:20:40.373Z,3.20
2023-02-27T14:23:17.309Z,4.30
2023-02-27T14:25:53.816Z,2.00
2023-02-27T14:28:30.466Z,5.10
2023-02-27T14:31:06.160Z,2.30
2023-02-27T14:33:50.617Z,1.40
2023-02-27T14:36:24.854Z,2.40
2023-02-27T14:39:01.633Z,4.00
2023-02-27T14:41:49.577Z,2.60
2023-02-27T14:44:23.929Z,4.40
2023-02-27T14:46:54.821Z,5.00
2023-02-27T14:49:34.896Z,5.90
2023-02-27T14:52:13.317Z,7.00
2023-02-27T14:54:42.273Z,3.10
2023-02-27T14:57:21.740Z,2.30
2023-02-27T14:59:54.112Z,6.30
2023-02-27T15:02:24.279Z,2.80
2023-02-27T15:05:16.714Z,4.00
2023-02-27T15:10:33.560Z,3.40
2023-02-27T15:13:02.779Z,2.50
2023-02-27T15:15:32.018Z,4.80
2023-02-27T15:18:01.228Z,3.40
2023-02-27T15:20:35.722Z,3.00
2023-02-27T15:23:26.191Z,3.50
2023-02-27T15:25:57.544Z,3.50
2023-02-27T15:28:32.419Z,6.40
2023-02-27T15:31:03.713Z,4.30
2023-02-27T15:33:33.772Z,4.20
2023-02-27T15:36:02.243Z,4.60
2023-02-27T15:38:34.381Z,3.80
2023-02-27T15:41:04.078Z,5.50
2023-02-27T15:43:32.522Z,6.20
2023-02-27T15:46:01.036Z,4.60
2023-02-27T15:48:30.189Z,4.90
2023-02-27T15:51:02.121Z,4.40
2023-02-27T15:56:02.089Z,5.10
2023-02-27T15:58:33.474Z,2.50
2023-02-27T16:01:15.393Z,5.70
2023-02-27T16:03:46.605Z,8.10
2023-02-27T16:06:27.025Z,5.50
2023-02-27T16:08:59.058Z,9.70
2023-02-27T16:11:33.219Z,5.30
2023-02-27T16:14:01.862Z,4.90
2023-02-27T16:16:36.087Z,6.20
2023-02-27T16:19:27.042Z,3.90
2023-02-27T16:22:06.669Z,5.10
2023-02-27T16:24:34.824Z,5.00
2023-02-27T16:27:03.152Z,4.40
2023-02-27T16:29:36.959Z,4.30
2023-02-27T16:32:05.068Z,4.50
2023-02-27T16:34:46.805Z,5.80
2023-02-27T16:37:43.159Z,5.00
2023-02-27T16:40:23.240Z,11.90
2023-02-27T16:42:52.548Z,5.80
2023-02-27T16:45:23.973Z,7.70
2023-02-27T16:47:57.410Z,13.20
2023-02-27T16:50:39.792Z,10.10
2023-02-27T16:53:08.967Z,14.00
2023-02-27T16:55:43.359Z,10.20
2023-02-27T16:58:16.126Z,8.90
2023-02-27T17:00:44.041Z,9.30
2023-02-27T17:03:11.891Z,8.50
2023-02-27T17:05:41.131Z,9.60
2023-02-27T17:08:11.119Z,7.90
2023-02-27T17:10:39.193Z,9.40
2023-02-27T17:13:07.110Z,9.60
2023-02-27T17:15:35.251Z,14.50
2023-02-27T17:18:03.290Z,12.00
2023-02-27T17:20:31.588Z,12.00
2023-02-27T17:22:59.568Z,16.80
2023-02-27T17:25:28.055Z,8.30
2023-02-27T17:27:56.093Z,9.30
2023-02-27T17:30:23.984Z,8.40
2023-02-27T17:32:51.988Z,4.20
2023-02-27T17:35:20.120Z,6.60
2023-02-27T17:37:48.091Z,9.80
2023-02-27T17:40:16.178Z,18.90
2023-02-27T17:42:45.563Z,7.10
2023-02-27T17:45:14.612Z,3.20
2023-02-27T17:47:44.184Z,6.60
2023-02-27T17:50:13.451Z,4.30
2023-02-27T17:52:41.733Z,5.00
2023-02-27T17:55:10.517Z,7.00
2023-02-27T17:57:39.537Z,6.70
2023-02-27T18:00:10.683Z,2.70
2023-02-27T18:02:38.644Z,8.30
2023-02-27T18:05:07.263Z,4.70
2023-02-27T18:07:35.464Z,7.50
2023-02-27T18:10:05.803Z,4.40
2023-02-27T18:12:34.374Z,5.90
2023-02-27T18:15:03.383Z,6.60
2023-02-27T18:17:31.728Z,6.00
2023-02-27T18:20:00.221Z,8.00
2023-02-27T18:22:30.004Z,5.40
2023-02-27T18:24:58.803Z,5.20
2023-02-27T18:27:28.300Z,8.00
2023-02-27T18:29:57.711Z,5.70
2023-02-27T18:32:25.935Z,7.40
2023-02-27T18:34:54.162Z,7.20
2023-02-27T18:37:22.238Z,10.10
2023-02-27T18:39:50.134Z,7.30
2023-02-27T18:42:18.120Z,13.20
2023-02-27T18:44:48.188Z,7.30
2023-02-27T18:47:16.152Z,9.40
2023-02-27T18:49:44.293Z,9.10
2023-02-27T18:52:12.350Z,12.90
2023-02-27T18:54:42.497Z,8.60
2023-02-27T18:57:10.901Z,13.20
2023-02-27T18:59:41.324Z,11.40
2023-02-27T19:04:36.796Z,7.60
2023-02-27T19:07:04.762Z,9.40
2023-02-27T19:09:32.952Z,6.50
2023-02-27T19:12:01.288Z,8.30
2023-02-27T19:14:29.390Z,10.50
2023-02-27T19:17:00.381Z,10.20
2023-02-27T19:19:28.668Z,14.90
2023-02-27T19:21:56.957Z,50.40
2023-02-27T19:24:25.480Z,16.70
2023-02-27T19:26:53.707Z,12.10
2023-02-27T19:29:21.810Z,12.20
2023-02-27T19:31:50.757Z,18.70
2023-02-27T19:34:19.037Z,12.90
2023-02-27T19:36:47.133Z,23.50
2023-02-27T19:39:15.253Z,19.90
2023-02-27T19:41:43.332Z,37.00
2023-02-27T19:44:12.233Z,28.20
2023-02-27T19:46:41.398Z,25.10
2023-02-27T19:49:10.275Z,19.50
2023-02-27T19:51:38.897Z,24.10
2023-02-27T19:54:07.403Z,18.10
2023-02-27T19:56:35.333Z,14.90
2023-02-27T19:59:03.358Z,14.20
2023-02-27T20:01:34.394Z,21.80
2023-02-27T20:04:03.554Z,28.10
2023-02-27T20:06:41.705Z,11.70
2023-02-27T20:09:14.469Z,12.70
2023-02-27T20:11:43.882Z,14.90
2023-02-27T20:14:14.116Z,26.40
2023-02-27T20:16:42.504Z,12.60
2023-02-27T20:19:14.127Z,10.40
2023-02-27T20:21:43.167Z,8.50
2023-02-27T20:24:11.423Z,11.80
2023-02-27T20:26:42.518Z,10.90
2023-02-27T20:29:23.444Z,18.90
2023-02-27T20:31:52.863Z,17.10
2023-02-27T20:34:24.875Z,11.50
2023-02-27T20:36:55.224Z,12.60
2023-02-27T20:39:24.447Z,9.70
2023-02-27T20:41:52.389Z,15.10
2023-02-27T20:44:20.363Z,16.90
2023-02-27T20:46:49.522Z,13.50
2023-02-27T20:49:18.356Z,15.10
2023-02-27T20:51:46.610Z,18.90
2023-02-27T20:54:20.422Z,17.70
2023-02-27T20:56:52.167Z,17.40
2023-02-27T20:59:22.389Z,21.70
2023-02-27T21:01:53.210Z,21.20
2023-02-27T21:04:24.529Z,21.00
2023-02-27T21:06:53.147Z,16.50
2023-02-27T21:09:21.090Z,14.50
2023-02-27T21:11:49.119Z,17.30
2023-02-27T21:14:17.022Z,16.50
2023-02-27T21:16:45.149Z,16.40
2023-02-27T21:19:13.152Z,18.80
2023-02-27T21:21:41.042Z,23.30
2023-02-27T21:24:08.891Z,19.80
2023-02-27T21:26:38.918Z,23.20
2023-02-27T21:29:08.740Z,18.30
2023-02-27T21:31:37.675Z,24.90
2023-02-27T21:34:09.050Z,22.20
2023-02-27T21:36:42.386Z,19.20
2023-02-27T21:39:19.587Z,26.00
2023-02-27T21:41:49.257Z,34.60
2023-02-27T21:44:20.619Z,23.70
2023-02-27T21:46:48.570Z,28.70
2023-02-27T21:49:25.707Z,27.80
2023-02-27T21:51:55.211Z,24.90
2023-02-27T21:54:23.790Z,23.20
2023-02-27T21:56:51.789Z,24.80
2023-02-27T21:59:20.769Z,25.50
2023-02-27T22:01:49.286Z,27.80
2023-02-27T22:04:19.902Z,27.20
2023-02-27T22:06:49.502Z,22.40
2023-02-27T22:09:20.558Z,21.90
2023-02-27T22:11:49.492Z,21.70
2023-02-27T22:14:17.952Z,23.60
2023-02-27T22:16:46.148Z,22.50
2023-02-27T22:19:22.000Z,20.60
2023-02-27T22:21:50.092Z,23.90
2023-02-27T22:24:18.365Z,24.40
2023-02-27T22:26:47.839Z,26.70
2023-02-27T22:29:17.199Z,25.90
2023-02-27T22:31:45.915Z,26.50
2023-02-27T22:34:18.404Z,26.60
2023-02-27T22:36:52.727Z,23.50
2023-02-27T22:39:21.522Z,21.80
2023-02-27T22:41:49.767Z,23.50
2023-02-27T22:44:19.199Z,21.40
2023-02-27T22:46:49.194Z,23.60
2023-02-27T22:49:22.464Z,27.00
2023-02-27T22:51:52.161Z,23.40
2023-02-27T22:54:22.353Z,27.10
2023-02-27T22:56:52.312Z,27.10
2023-02-27T22:59:21.400Z,26.60
2023-02-27T23:01:50.453Z,24.40
2023-02-27T23:04:18.646Z,24.90
2023-02-27T23:06:46.700Z,26.70
2023-02-27T23:09:18.387Z,23.10
2023-02-27T23:11:46.725Z,25.70
2023-02-27T23:14:15.262Z,28.20
2023-02-27T23:16:46.716Z,28.10
2023-02-27T23:19:17.052Z,31.00
2023-02-27T23:21:45.155Z,27.60
2023-02-27T23:24:15.765Z,27.00
2023-02-27T23:26:46.871Z,28.20
2023-02-27T23:29:15.648Z,33.80
2023-02-27T23:31:43.620Z,30.20
2023-02-27T23:34:11.588Z,26.70
2023-02-27T23:36:40.838Z,26.80
2023-02-27T23:39:08.948Z,28.40
2023-02-27T23:41:36.893Z,33.60
2023-02-27T23:44:04.900Z,38.30
2023-02-27T23:46:32.983Z,35.50
2023-02-27T23:49:01.966Z,40.00
2023-02-27T23:51:31.088Z,48.10
2023-02-27T23:53:59.982Z,42.50
2023-02-27T23:56:30.444Z,34.30
2023-02-27T23:59:01.757Z,32.70
